Lady Washington — WAA2820 — position and weather

sailwx.info

Track history (hours):
 
Tides and Currents Weather Stations Pressure Air Temp Water Temp Dewpoint Dewpoint Depression Visibility Wind Speed Wind Dir Waves Ship Positions

Lady Washington (United States)

Ship's website: http://www.historicalseaport.org/LadyWashington.htm

Owner: GRAYS HARBOR HISTORICAL SEAPORT AUTHORIT, ABERDEEN, WA. More information available from US FCC via Universal Licensing System and Coast Guard Vessel Documentation Center.

Last reported at 2019-Sep-18 19:06 UTC. Time now 2019-Sep-21 04:39 UTC.
Position N 47°48' W 122°25'.

Length 34 m.

Type: Sailing vessel. MMSI: 366945360.

Date/timePositionNaut miles runAvg speedWind from/ knotsBaromVisibWave heightAir tempDewpointWater temp
2019-Sep-18 19:06N 47°48' W 122°25'1 6.9
2019-Sep-18 19:00N 47°47' W 122°25'3 6.9
2019-Sep-18 18:30N 47°43' W 122°26'3 7.0
2019-Sep-18 18:01N 47°40' W 122°27'6 7.0
2019-Sep-18 17:11N 47°34' W 122°26'2 7.1
2019-Sep-18 16:58N 47°33' W 122°26'3 6.9
2019-Sep-18 16:30N 47°30' W 122°25'3 6.8
2019-Sep-18 16:01N 47°27' W 122°23'3 6.9
2019-Sep-18 15:30N 47°23' W 122°21'3 6.3
2019-Sep-18 14:59N 47°21' W 122°24'3 6.6
2019-Sep-18 14:30N 47°19' W 122°27'3 2.3
2019-Sep-18 13:09N 47°16' W 122°26'0 0.0
2019-Sep-18 12:39N 47°16' W 122°26'0 0.0
2019-Sep-18 10:51N 47°16' W 122°26'0 0.0
2019-Sep-18 08:15N 47°16' W 122°26'0 0.0
2019-Sep-18 05:57N 47°16' W 122°26'0 0.0
2019-Sep-18 04:57N 47°16' W 122°26'0 0.0
2019-Sep-18 02:12N 47°16' W 122°26'0 0.0
2019-Sep-17 23:39N 47°16' W 122°26'0 0.0
2019-Sep-17 22:27N 47°16' W 122°26'0 0.0
2019-Sep-17 21:42N 47°16' W 122°26'0 0.0
2019-Sep-17 15:31N 47°16' W 122°26'0 0.0
2019-Sep-17 15:22N 47°16' W 122°26'0 0.0
2019-Sep-17 13:19N 47°16' W 122°26'0 0.0
2019-Sep-17 12:58N 47°16' W 122°26'0 0.0
2019-Sep-17 12:28N 47°16' W 122°26'0 0.0
2019-Sep-17 11:49N 47°16' W 122°26'0 0.0
2019-Sep-17 10:28N 47°16' W 122°26'0 0.0
2019-Sep-17 09:43N 47°16' W 122°26'0 0.0
2019-Sep-17 09:28N 47°16' W 122°26'0 0.0
2019-Sep-17 08:46N 47°16' W 122°26'0 0.0
2019-Sep-17 08:28N 47°16' W 122°26'0 0.0
2019-Sep-17 07:37N 47°16' W 122°26'0 0.0
2019-Sep-17 06:58N 47°16' W 122°26'0 0.0
2019-Sep-17 06:07N 47°16' W 122°26'0 0.0
2019-Sep-17 05:58N 47°16' W 122°26'0 0.0
2019-Sep-17 04:28N 47°16' W 122°26'0 0.0
2019-Sep-17 01:52N 47°16' W 122°26'0 0.0
2019-Sep-17 01:19N 47°16' W 122°26'0 0.0
2019-Sep-17 00:13N 47°16' W 122°26'0 0.0
2019-Sep-16 23:58N 47°16' W 122°26'0 0.0
2019-Sep-16 23:28N 47°16' W 122°26'0 0.0
2019-Sep-16 20:52N 47°16' W 122°26'0 0.0
2019-Sep-16 20:01N 47°16' W 122°26'0 0.1
2019-Sep-16 19:55N 47°16' W 122°26'0 0.0
2019-Sep-16 15:53N 47°16' W 122°26'0 0.0
2019-Sep-16 14:32N 47°16' W 122°26'0 0.1
2019-Sep-16 14:26N 47°16' W 122°26'0 0.0
2019-Sep-16 13:32N 47°16' W 122°26'0 0.0
2019-Sep-16 13:26N 47°16' W 122°26'0 0.0
2019-Sep-16 12:35N 47°16' W 122°26'0 0.0
2019-Sep-16 12:29N 47°16' W 122°26'0 0.0
2019-Sep-16 11:50N 47°16' W 122°26'0 0.0
2019-Sep-16 11:29N 47°16' W 122°26'0 0.0
2019-Sep-16 10:41N 47°16' W 122°26'0 0.0
2019-Sep-16 10:20N 47°16' W 122°26'0 0.0
2019-Sep-16 09:59N 47°16' W 122°26'0 0.0
2019-Sep-16 09:29N 47°16' W 122°26'0 0.0
2019-Sep-16 08:59N 47°16' W 122°26'0 0.0
2019-Sep-16 07:50N 47°16' W 122°26'0 0.0
2019-Sep-16 07:17N 47°16' W 122°26'0 0.0
2019-Sep-16 06:44N 47°16' W 122°26'0 0.0
2019-Sep-16 06:02N 47°16' W 122°26'0 0.0
2019-Sep-16 05:41N 47°16' W 122°26'0 0.0
2019-Sep-16 04:14N 47°16' W 122°26'0 0.0
2019-Sep-16 02:52N 47°16' W 122°26'0 0.0
2019-Sep-16 01:10N 47°16' W 122°26'1 0.4
2019-Sep-15 22:26N 47°16' W 122°27'1 2.2
2019-Sep-15 22:00N 47°17' W 122°28'1 2.6
2019-Sep-15 21:30N 47°16' W 122°27'1 0.5
2019-Sep-15 20:16N 47°16' W 122°26'0 0.0
2019-Sep-15 19:13N 47°16' W 122°26'0 0.0
2019-Sep-15 18:52N 47°16' W 122°26'0 0.0
2019-Sep-15 18:04N 47°16' W 122°26'0 0.0
2019-Sep-15 17:58N 47°16' W 122°26'0 0.0
2019-Sep-15 17:13N 47°16' W 122°26'0 0.0
2019-Sep-15 16:58N 47°16' W 122°26'0 0.0
2019-Sep-15 16:28N 47°16' W 122°26'0 0.0
2019-Sep-15 15:28N 47°16' W 122°26'0 0.0
2019-Sep-15 14:52N 47°16' W 122°26'0 0.0
2019-Sep-15 14:28N 47°16' W 122°26'0 0.0
2019-Sep-15 13:58N 47°16' W 122°26'0 0.0
2019-Sep-15 13:25N 47°16' W 122°26'0 0.0
2019-Sep-15 12:58N 47°16' W 122°26'0 0.0
2019-Sep-15 12:28N 47°16' W 122°26'0 0.0
2019-Sep-15 11:55N 47°16' W 122°26'0 0.0
2019-Sep-15 11:28N 47°16' W 122°26'0 0.0
2019-Sep-15 10:58N 47°16' W 122°26'0 0.0
2019-Sep-15 10:19N 47°16' W 122°26'0 0.0
2019-Sep-15 09:58N 47°16' W 122°26'0 0.0
2019-Sep-15 09:28N 47°16' W 122°26'0 0.0
2019-Sep-15 08:58N 47°16' W 122°26'0 0.0
2019-Sep-15 08:25N 47°16' W 122°26'0 0.0
2019-Sep-15 07:58N 47°16' W 122°26'0 0.0
2019-Sep-15 07:28N 47°16' W 122°26'0 0.0
2019-Sep-15 06:52N 47°16' W 122°26'0 0.0
2019-Sep-15 06:19N 47°16' W 122°26'0 0.0
2019-Sep-15 05:58N 47°16' W 122°26'0 0.0
2019-Sep-15 05:28N 47°16' W 122°26'0 0.0
2019-Sep-15 04:52N 47°16' W 122°26'0 0.0
2019-Sep-15 03:46N 47°16' W 122°26'0 0.0
2019-Sep-15 03:22N 47°16' W 122°26'0 0.0
2019-Sep-15 02:52N 47°16' W 122°26'0 0.0
2019-Sep-15 02:28N 47°16' W 122°26'1 1.3
2019-Sep-15 01:31N 47°17' W 122°26'1 2.1
2019-Sep-15 01:10N 47°17' W 122°27'0 2.3
2019-Sep-15 01:00N 47°17' W 122°28'1 1.0
2019-Sep-15 00:30N 47°18' W 122°28'2 3.1
2019-Sep-14 23:56N 47°16' W 122°26'1 1.3
2019-Sep-14 23:13N 47°16' W 122°26'0 0.0
2019-Sep-14 22:49N 47°16' W 122°26'0 0.0
2019-Sep-14 22:25N 47°16' W 122°26'0 0.0
2019-Sep-14 20:10N 47°16' W 122°26'0 0.0
2019-Sep-14 19:25N 47°16' W 122°26'0 0.0
2019-Sep-14 18:04N 47°16' W 122°26'0 0.1
2019-Sep-14 18:01N 47°16' W 122°26'0 0.0
2019-Sep-14 17:04N 47°16' W 122°26'0 0.0
2019-Sep-14 16:40N 47°16' W 122°26'0 0.0
2019-Sep-14 16:28N 47°16' W 122°26'0 0.0
2019-Sep-14 15:58N 47°16' W 122°26'0 0.0
2019-Sep-14 15:22N 47°16' W 122°26'0 0.0
2019-Sep-14 14:57N 47°16' W 122°26'0 0.0
2019-Sep-14 14:24N 47°16' W 122°26'0 0.0
2019-Sep-14 14:00N 47°16' W 122°26'0 0.0
2019-Sep-14 13:25N 47°16' W 122°26'0 0.0
2019-Sep-14 12:58N 47°16' W 122°26'0 0.0
2019-Sep-14 12:28N 47°16' W 122°26'0 0.0
2019-Sep-14 12:01N 47°16' W 122°26'0 0.0
2019-Sep-14 11:28N 47°16' W 122°26'0 0.0
2019-Sep-14 10:58N 47°16' W 122°26'0 0.0
2019-Sep-14 10:27N 47°16' W 122°26'0 0.0
2019-Sep-14 09:49N 47°16' W 122°26'0 0.0
2019-Sep-14 09:28N 47°16' W 122°26'0 0.0
2019-Sep-14 09:01N 47°16' W 122°26'0 0.0
2019-Sep-14 08:19N 47°16' W 122°26'0 0.0
2019-Sep-14 07:58N 47°16' W 122°26'0 0.0
2019-Sep-14 07:31N 47°16' W 122°26'0 0.0
2019-Sep-14 06:52N 47°16' W 122°26'0 0.0
2019-Sep-14 06:16N 47°16' W 122°26'0 0.0
2019-Sep-14 06:01N 47°16' W 122°26'0 0.0
2019-Sep-14 05:31N 47°16' W 122°26'0 0.0
2019-Sep-14 04:34N 47°16' W 122°26'0 0.0
2019-Sep-14 04:16N 47°16' W 122°26'0 0.0
2019-Sep-14 04:01N 47°16' W 122°26'0 0.0
2019-Sep-14 03:22N 47°16' W 122°26'0 0.0
2019-Sep-14 03:00N 47°16' W 122°26'1 0.9
2019-Sep-14 02:07N 47°16' W 122°27'0 0.8
2019-Sep-14 01:37N 47°16' W 122°26'0 0.8
2019-Sep-14 01:10N 47°16' W 122°26'0 0.0
2019-Sep-14 00:31N 47°16' W 122°26'0 0.0
2019-Sep-13 20:37N 47°16' W 122°26'0 0.0
2019-Sep-13 19:31N 47°16' W 122°26'0 0.0
2019-Sep-13 12:40N 47°16' W 122°26'0 0.0
2019-Sep-13 11:58N 47°16' W 122°26'0 0.0
2019-Sep-13 10:40N 47°16' W 122°26'0 0.0
2019-Sep-13 02:04N 47°16' W 122°26'0 0.0
2019-Sep-13 00:58N 47°16' W 122°26'0 0.0
2019-Sep-13 00:28N 47°16' W 122°26'0 0.0
2019-Sep-12 23:52N 47°16' W 122°26'0 0.0
2019-Sep-12 23:25N 47°16' W 122°26'0 0.0
2019-Sep-12 22:07N 47°16' W 122°26'1 0.5
2019-Sep-12 19:30N 47°17' W 122°27'1 0.4
2019-Sep-12 17:36N 47°16' W 122°27'0 0.5
2019-Sep-12 17:07N 47°16' W 122°27'0 0.7
2019-Sep-12 16:58N 47°16' W 122°26'1 0.9
2019-Sep-12 16:14N 47°16' W 122°26'0 0.1
2019-Sep-12 15:25N 47°16' W 122°26'0 0.0
2019-Sep-12 14:55N 47°16' W 122°26'0 0.0
2019-Sep-12 14:28N 47°16' W 122°26'0 0.0
2019-Sep-12 13:52N 47°16' W 122°26'0 0.0
2019-Sep-12 13:28N 47°16' W 122°26'0 0.0
2019-Sep-12 12:55N 47°16' W 122°26'0 0.0
2019-Sep-12 12:25N 47°16' W 122°26'0 0.0
2019-Sep-12 11:55N 47°16' W 122°26'0 0.0
2019-Sep-12 11:25N 47°16' W 122°26'0 0.0
2019-Sep-12 10:58N 47°16' W 122°26'0 0.0
2019-Sep-12 10:28N 47°16' W 122°26'0 0.0
2019-Sep-12 09:58N 47°16' W 122°26'0 0.0
2019-Sep-12 09:28N 47°16' W 122°26'0 0.0
2019-Sep-12 08:58N 47°16' W 122°26'0 0.0
2019-Sep-12 08:19N 47°16' W 122°26'0 0.0
2019-Sep-12 07:55N 47°16' W 122°26'0 0.0
2019-Sep-12 07:25N 47°16' W 122°26'0 0.0
2019-Sep-12 06:55N 47°16' W 122°26'0 0.0
2019-Sep-12 06:28N 47°16' W 122°26'0 0.0
2019-Sep-12 05:49N 47°16' W 122°26'0 0.0
2019-Sep-12 05:25N 47°16' W 122°26'0 0.0
2019-Sep-12 04:52N 47°16' W 122°26'0 0.0
2019-Sep-12 04:25N 47°16' W 122°26'0 0.0
2019-Sep-12 03:49N 47°16' W 122°26'0 0.0
2019-Sep-12 03:01N 47°16' W 122°26'0 0.0
2019-Sep-12 02:16N 47°16' W 122°26'0 0.0
2019-Sep-12 01:55N 47°16' W 122°26'0 0.0
2019-Sep-12 01:28N 47°16' W 122°26'0 0.0
2019-Sep-12 00:49N 47°16' W 122°26'0 0.0
2019-Sep-12 00:10N 47°16' W 122°26'0 0.0
2019-Sep-11 23:59N 47°16' W 122°26'0 0.0
2019-Sep-11 23:28N 47°16' W 122°26'0 0.0
2019-Sep-11 22:58N 47°16' W 122°26'0 0.0
2019-Sep-11 22:28N 47°16' W 122°26'0 0.0
2019-Sep-11 21:58N 47°16' W 122°26'0 0.0
2019-Sep-11 20:34N 47°16' W 122°26'0 0.0
2019-Sep-11 20:28N 47°16' W 122°26'1 1.7
2019-Sep-11 20:00N 47°16' W 122°27'2 3.5
2019-Sep-11 19:29N 47°18' W 122°28'1 2.4
2019-Sep-11 19:00N 47°19' W 122°27'1 1.4
2019-Sep-11 18:30N 47°18' W 122°27'1 1.6
2019-Sep-11 17:59N 47°18' W 122°28'4 4.0
2019-Sep-11 17:05N 47°19' W 122°33'  
Track history (hours):
 
Tides and Currents Weather Stations Pressure Air Temp Water Temp Dewpoint Dewpoint Depression Visibility Wind Speed Wind Dir Waves Ship Positions

Lady Washington (United States)

Ship's website: http://www.historicalseaport.org/LadyWashington.htm

Owner: GRAYS HARBOR HISTORICAL SEAPORT AUTHORIT, ABERDEEN, WA. More information available from US FCC via Universal Licensing System and Coast Guard Vessel Documentation Center.

Last reported at 2019-Sep-18 19:06 UTC. Time now 2019-Sep-21 04:39 UTC.
Position N 47°48' W 122°25'.

Length 34 m.

Type: Sailing vessel. MMSI: 366945360.

Date/timePositionNaut miles runAvg speedWind from/ knotsBaromVisibWave heightAir tempDewpointWater temp
2019-Sep-18 19:06N 47°48' W 122°25'1 6.9
2019-Sep-18 19:00N 47°47' W 122°25'3 6.9
2019-Sep-18 18:30N 47°43' W 122°26'3 7.0
2019-Sep-18 18:01N 47°40' W 122°27'6 7.0
2019-Sep-18 17:11N 47°34' W 122°26'2 7.1
2019-Sep-18 16:58N 47°33' W 122°26'3 6.9
2019-Sep-18 16:30N 47°30' W 122°25'3 6.8
2019-Sep-18 16:01N 47°27' W 122°23'3 6.9
2019-Sep-18 15:30N 47°23' W 122°21'3 6.3
2019-Sep-18 14:59N 47°21' W 122°24'3 6.6
2019-Sep-18 14:30N 47°19' W 122°27'3 2.3
2019-Sep-18 13:09N 47°16' W 122°26'0 0.0
2019-Sep-18 12:39N 47°16' W 122°26'0 0.0
2019-Sep-18 10:51N 47°16' W 122°26'0 0.0
2019-Sep-18 08:15N 47°16' W 122°26'0 0.0
2019-Sep-18 05:57N 47°16' W 122°26'0 0.0
2019-Sep-18 04:57N 47°16' W 122°26'0 0.0
2019-Sep-18 02:12N 47°16' W 122°26'0 0.0
2019-Sep-17 23:39N 47°16' W 122°26'0 0.0
2019-Sep-17 22:27N 47°16' W 122°26'0 0.0
2019-Sep-17 21:42N 47°16' W 122°26'0 0.0
2019-Sep-17 15:31N 47°16' W 122°26'0 0.0
2019-Sep-17 15:22N 47°16' W 122°26'0 0.0
2019-Sep-17 13:19N 47°16' W 122°26'0 0.0
2019-Sep-17 12:58N 47°16' W 122°26'0 0.0
2019-Sep-17 12:28N 47°16' W 122°26'0 0.0
2019-Sep-17 11:49N 47°16' W 122°26'0 0.0
2019-Sep-17 10:28N 47°16' W 122°26'0 0.0
2019-Sep-17 09:43N 47°16' W 122°26'0 0.0
2019-Sep-17 09:28N 47°16' W 122°26'0 0.0
2019-Sep-17 08:46N 47°16' W 122°26'0 0.0
2019-Sep-17 08:28N 47°16' W 122°26'0 0.0
2019-Sep-17 07:37N 47°16' W 122°26'0 0.0
2019-Sep-17 06:58N 47°16' W 122°26'0 0.0
2019-Sep-17 06:07N 47°16' W 122°26'0 0.0
2019-Sep-17 05:58N 47°16' W 122°26'0 0.0
2019-Sep-17 04:28N 47°16' W 122°26'0 0.0
2019-Sep-17 01:52N 47°16' W 122°26'0 0.0
2019-Sep-17 01:19N 47°16' W 122°26'0 0.0
2019-Sep-17 00:13N 47°16' W 122°26'0 0.0
2019-Sep-16 23:58N 47°16' W 122°26'0 0.0
2019-Sep-16 23:28N 47°16' W 122°26'0 0.0
2019-Sep-16 20:52N 47°16' W 122°26'0 0.0
2019-Sep-16 20:01N 47°16' W 122°26'0 0.1
2019-Sep-16 19:55N 47°16' W 122°26'0 0.0
2019-Sep-16 15:53N 47°16' W 122°26'0 0.0
2019-Sep-16 14:32N 47°16' W 122°26'0 0.1
2019-Sep-16 14:26N 47°16' W 122°26'0 0.0
2019-Sep-16 13:32N 47°16' W 122°26'0 0.0
2019-Sep-16 13:26N 47°16' W 122°26'0 0.0
2019-Sep-16 12:35N 47°16' W 122°26'0 0.0
2019-Sep-16 12:29N 47°16' W 122°26'0 0.0
2019-Sep-16 11:50N 47°16' W 122°26'0 0.0
2019-Sep-16 11:29N 47°16' W 122°26'0 0.0
2019-Sep-16 10:41N 47°16' W 122°26'0 0.0
2019-Sep-16 10:20N 47°16' W 122°26'0 0.0
2019-Sep-16 09:59N 47°16' W 122°26'0 0.0
2019-Sep-16 09:29N 47°16' W 122°26'0 0.0
2019-Sep-16 08:59N 47°16' W 122°26'0 0.0
2019-Sep-16 07:50N 47°16' W 122°26'0 0.0
2019-Sep-16 07:17N 47°16' W 122°26'0 0.0
2019-Sep-16 06:44N 47°16' W 122°26'0 0.0
2019-Sep-16 06:02N 47°16' W 122°26'0 0.0
2019-Sep-16 05:41N 47°16' W 122°26'0 0.0
2019-Sep-16 04:14N 47°16' W 122°26'0 0.0
2019-Sep-16 02:52N 47°16' W 122°26'0 0.0
2019-Sep-16 01:10N 47°16' W 122°26'1 0.4
2019-Sep-15 22:26N 47°16' W 122°27'1 2.2
2019-Sep-15 22:00N 47°17' W 122°28'1 2.6
2019-Sep-15 21:30N 47°16' W 122°27'1 0.5
2019-Sep-15 20:16N 47°16' W 122°26'0 0.0
2019-Sep-15 19:13N 47°16' W 122°26'0 0.0
2019-Sep-15 18:52N 47°16' W 122°26'0 0.0
2019-Sep-15 18:04N 47°16' W 122°26'0 0.0
2019-Sep-15 17:58N 47°16' W 122°26'0 0.0
2019-Sep-15 17:13N 47°16' W 122°26'0 0.0
2019-Sep-15 16:58N 47°16' W 122°26'0 0.0
2019-Sep-15 16:28N 47°16' W 122°26'0 0.0
2019-Sep-15 15:28N 47°16' W 122°26'0 0.0
2019-Sep-15 14:52N 47°16' W 122°26'0 0.0
2019-Sep-15 14:28N 47°16' W 122°26'0 0.0
2019-Sep-15 13:58N 47°16' W 122°26'0 0.0
2019-Sep-15 13:25N 47°16' W 122°26'0 0.0
2019-Sep-15 12:58N 47°16' W 122°26'0 0.0
2019-Sep-15 12:28N 47°16' W 122°26'0 0.0
2019-Sep-15 11:55N 47°16' W 122°26'0 0.0
2019-Sep-15 11:28N 47°16' W 122°26'0 0.0
2019-Sep-15 10:58N 47°16' W 122°26'0 0.0
2019-Sep-15 10:19N 47°16' W 122°26'0 0.0
2019-Sep-15 09:58N 47°16' W 122°26'0 0.0
2019-Sep-15 09:28N 47°16' W 122°26'0 0.0
2019-Sep-15 08:58N 47°16' W 122°26'0 0.0
2019-Sep-15 08:25N 47°16' W 122°26'0 0.0
2019-Sep-15 07:58N 47°16' W 122°26'0 0.0
2019-Sep-15 07:28N 47°16' W 122°26'0 0.0
2019-Sep-15 06:52N 47°16' W 122°26'0 0.0
2019-Sep-15 06:19N 47°16' W 122°26'0 0.0
2019-Sep-15 05:58N 47°16' W 122°26'0 0.0
2019-Sep-15 05:28N 47°16' W 122°26'0 0.0
2019-Sep-15 04:52N 47°16' W 122°26'0 0.0
2019-Sep-15 03:46N 47°16' W 122°26'0 0.0
2019-Sep-15 03:22N 47°16' W 122°26'0 0.0
2019-Sep-15 02:52N 47°16' W 122°26'0 0.0
2019-Sep-15 02:28N 47°16' W 122°26'1 1.3
2019-Sep-15 01:31N 47°17' W 122°26'1 2.1
2019-Sep-15 01:10N 47°17' W 122°27'0 2.3
2019-Sep-15 01:00N 47°17' W 122°28'1 1.0
2019-Sep-15 00:30N 47°18' W 122°28'2 3.1
2019-Sep-14 23:56N 47°16' W 122°26'1 1.3
2019-Sep-14 23:13N 47°16' W 122°26'0 0.0
2019-Sep-14 22:49N 47°16' W 122°26'0 0.0
2019-Sep-14 22:25N 47°16' W 122°26'0 0.0
2019-Sep-14 20:10N 47°16' W 122°26'0 0.0
2019-Sep-14 19:25N 47°16' W 122°26'0 0.0
2019-Sep-14 18:04N 47°16' W 122°26'0 0.1
2019-Sep-14 18:01N 47°16' W 122°26'0 0.0
2019-Sep-14 17:04N 47°16' W 122°26'0 0.0
2019-Sep-14 16:40N 47°16' W 122°26'0 0.0
2019-Sep-14 16:28N 47°16' W 122°26'0 0.0
2019-Sep-14 15:58N 47°16' W 122°26'0 0.0
2019-Sep-14 15:22N 47°16' W 122°26'0 0.0
2019-Sep-14 14:57N 47°16' W 122°26'0 0.0
2019-Sep-14 14:24N 47°16' W 122°26'0 0.0
2019-Sep-14 14:00N 47°16' W 122°26'0 0.0
2019-Sep-14 13:25N 47°16' W 122°26'0 0.0
2019-Sep-14 12:58N 47°16' W 122°26'0 0.0
2019-Sep-14 12:28N 47°16' W 122°26'0 0.0
2019-Sep-14 12:01N 47°16' W 122°26'0 0.0
2019-Sep-14 11:28N 47°16' W 122°26'0 0.0
2019-Sep-14 10:58N 47°16' W 122°26'0 0.0
2019-Sep-14 10:27N 47°16' W 122°26'0 0.0
2019-Sep-14 09:49N 47°16' W 122°26'0 0.0
2019-Sep-14 09:28N 47°16' W 122°26'0 0.0
2019-Sep-14 09:01N 47°16' W 122°26'0 0.0
2019-Sep-14 08:19N 47°16' W 122°26'0 0.0
2019-Sep-14 07:58N 47°16' W 122°26'0 0.0
2019-Sep-14 07:31N 47°16' W 122°26'0 0.0
2019-Sep-14 06:52N 47°16' W 122°26'0 0.0
2019-Sep-14 06:16N 47°16' W 122°26'0 0.0
2019-Sep-14 06:01N 47°16' W 122°26'0 0.0
2019-Sep-14 05:31N 47°16' W 122°26'0 0.0
2019-Sep-14 04:34N 47°16' W 122°26'0 0.0
2019-Sep-14 04:16N 47°16' W 122°26'0 0.0
2019-Sep-14 04:01N 47°16' W 122°26'0 0.0
2019-Sep-14 03:22N 47°16' W 122°26'0 0.0
2019-Sep-14 03:00N 47°16' W 122°26'1 0.9
2019-Sep-14 02:07N 47°16' W 122°27'0 0.8
2019-Sep-14 01:37N 47°16' W 122°26'0 0.8
2019-Sep-14 01:10N 47°16' W 122°26'0 0.0
2019-Sep-14 00:31N 47°16' W 122°26'0 0.0
2019-Sep-13 20:37N 47°16' W 122°26'0 0.0
2019-Sep-13 19:31N 47°16' W 122°26'0 0.0
2019-Sep-13 12:40N 47°16' W 122°26'0 0.0
2019-Sep-13 11:58N 47°16' W 122°26'0 0.0
2019-Sep-13 10:40N 47°16' W 122°26'0 0.0
2019-Sep-13 02:04N 47°16' W 122°26'0 0.0
2019-Sep-13 00:58N 47°16' W 122°26'0 0.0
2019-Sep-13 00:28N 47°16' W 122°26'0 0.0
2019-Sep-12 23:52N 47°16' W 122°26'0 0.0
2019-Sep-12 23:25N 47°16' W 122°26'0 0.0
2019-Sep-12 22:07N 47°16' W 122°26'1 0.5
2019-Sep-12 19:30N 47°17' W 122°27'1 0.4
2019-Sep-12 17:36N 47°16' W 122°27'0 0.5
2019-Sep-12 17:07N 47°16' W 122°27'0 0.7
2019-Sep-12 16:58N 47°16' W 122°26'1 0.9
2019-Sep-12 16:14N 47°16' W 122°26'0 0.1
2019-Sep-12 15:25N 47°16' W 122°26'0 0.0
2019-Sep-12 14:55N 47°16' W 122°26'0 0.0
2019-Sep-12 14:28N 47°16' W 122°26'0 0.0
2019-Sep-12 13:52N 47°16' W 122°26'0 0.0
2019-Sep-12 13:28N 47°16' W 122°26'0 0.0
2019-Sep-12 12:55N 47°16' W 122°26'0 0.0
2019-Sep-12 12:25N 47°16' W 122°26'0 0.0
2019-Sep-12 11:55N 47°16' W 122°26'0 0.0
2019-Sep-12 11:25N 47°16' W 122°26'0 0.0
2019-Sep-12 10:58N 47°16' W 122°26'0 0.0
2019-Sep-12 10:28N 47°16' W 122°26'0 0.0
2019-Sep-12 09:58N 47°16' W 122°26'0 0.0
2019-Sep-12 09:28N 47°16' W 122°26'0 0.0
2019-Sep-12 08:58N 47°16' W 122°26'0 0.0
2019-Sep-12 08:19N 47°16' W 122°26'0 0.0
2019-Sep-12 07:55N 47°16' W 122°26'0 0.0
2019-Sep-12 07:25N 47°16' W 122°26'0 0.0
2019-Sep-12 06:55N 47°16' W 122°26'0 0.0
2019-Sep-12 06:28N 47°16' W 122°26'0 0.0
2019-Sep-12 05:49N 47°16' W 122°26'0 0.0
2019-Sep-12 05:25N 47°16' W 122°26'0 0.0
2019-Sep-12 04:52N 47°16' W 122°26'0 0.0
2019-Sep-12 04:25N 47°16' W 122°26'0 0.0
2019-Sep-12 03:49N 47°16' W 122°26'0 0.0
2019-Sep-12 03:01N 47°16' W 122°26'0 0.0
2019-Sep-12 02:16N 47°16' W 122°26'0 0.0
2019-Sep-12 01:55N 47°16' W 122°26'0 0.0
2019-Sep-12 01:28N 47°16' W 122°26'0 0.0
2019-Sep-12 00:49N 47°16' W 122°26'0 0.0
2019-Sep-12 00:10N 47°16' W 122°26'0 0.0
2019-Sep-11 23:59N 47°16' W 122°26'0 0.0
2019-Sep-11 23:28N 47°16' W 122°26'0 0.0
2019-Sep-11 22:58N 47°16' W 122°26'0 0.0
2019-Sep-11 22:28N 47°16' W 122°26'0 0.0
2019-Sep-11 21:58N 47°16' W 122°26'0 0.0
2019-Sep-11 20:34N 47°16' W 122°26'0 0.0
2019-Sep-11 20:28N 47°16' W 122°26'1 1.7
2019-Sep-11 20:00N 47°16' W 122°27'2 3.5
2019-Sep-11 19:29N 47°18' W 122°28'1 2.4
2019-Sep-11 19:00N 47°19' W 122°27'1 1.4
2019-Sep-11 18:30N 47°18' W 122°27'1 1.6
2019-Sep-11 17:59N 47°18' W 122°28'4 4.0
2019-Sep-11 17:05N 47°19' W 122°33'  

Dump ship's entire track history